Time;durP1;ratioP1;P1;durP2;ratioP2;P2;SDS_P1;SDS_P2;PMS_P1;PMS_P2;Temp;Humidity;BMP_temperature;BMP_pressure;BME280_temperature;BME280_humidity;BME280_pressure;Samples;Min_cycle;Max_cycle;Signal;HPM_P1;HPM_P2
2021/03/19 00:02:04;;;;;;;24.30;15.80;;;4.60;89.50;;;;;;5013950;28;20403;-73
2021/03/19 00:04:30;;;;;;;22.77;15.60;;;4.70;87.90;;;;;;5013923;28;20385;-74
2021/03/19 00:06:55;;;;;;;23.50;15.23;;;4.70;83.90;;;;;;5013391;28;20400;-73
2021/03/19 00:09:21;;;;;;;24.60;15.57;;;4.60;85.60;;;;;;5013070;28;20432;-72
2021/03/19 00:11:47;;;;;;;26.30;15.75;;;4.60;84.00;;;;;;5012942;28;20389;-73
2021/03/19 00:14:13;;;;;;;28.40;16.73;;;4.70;83.60;;;;;;5013210;28;20771;-73
2021/03/19 00:16:39;;;;;;;22.57;15.73;;;4.70;82.50;;;;;;5013310;28;20389;-73
2021/03/19 00:19:06;;;;;;;28.15;16.80;;;4.70;80.90;;;;;;5013233;28;20388;-73
2021/03/19 00:21:32;;;;;;;24.25;17.60;;;4.80;82.60;;;;;;5014007;28;20428;-73
2021/03/19 00:23:58;;;;;;;25.60;17.67;;;4.80;82.10;;;;;;5012374;28;20408;-73
2021/03/19 00:26:24;;;;;;;28.27;17.77;;;4.80;82.80;;;;;;5014136;28;20393;-73
2021/03/19 00:28:50;;;;;;;24.73;17.77;;;4.90;82.50;;;;;;5013812;28;20400;-74
2021/03/19 00:31:16;;;;;;;25.55;18.40;;;4.90;78.60;;;;;;5014878;28;20407;-73
2021/03/19 00:33:42;;;;;;;28.50;17.75;;;4.90;80.30;;;;;;5023058;28;20398;-72
2021/03/19 00:36:08;;;;;;;25.47;18.53;;;4.90;81.20;;;;;;5030828;28;20387;-72
2021/03/19 00:38:34;;;;;;;27.20;18.20;;;4.90;80.70;;;;;;5030577;28;20425;-72
2021/03/19 00:40:59;;;;;;;30.00;19.70;;;4.90;80.60;;;;;;5030429;28;20790;-73
2021/03/19 00:43:25;;;;;;;26.47;18.53;;;4.90;82.40;;;;;;5034378;28;20800;-72
2021/03/19 00:45:51;;;;;;;30.13;18.10;;;4.90;78.30;;;;;;5034893;28;20399;-73
2021/03/19 00:48:16;;;;;;;35.15;19.58;;;4.90;78.40;;;;;;5022135;28;20420;-73
2021/03/19 00:50:43;;;;;;;30.40;19.83;;;5.00;77.70;;;;;;5013122;28;20925;-73
2021/03/19 00:53:10;;;;;;;25.75;19.27;;;5.10;77.00;;;;;;5013746;28;20380;-73
2021/03/19 00:55:36;;;;;;;29.75;20.08;;;5.10;77.40;;;;;;5014642;28;20388;-73
2021/03/19 00:58:02;;;;;;;29.40;20.27;;;5.10;76.30;;;;;;5014591;28;20460;-74
2021/03/19 01:00:36;;;;;;;27.73;19.33;;;5.20;76.60;;;;;;5014416;28;20407;-73
2021/03/19 01:03:06;;;;;;;29.20;20.08;;;5.20;76.80;;;;;;5018122;28;20385;-74
2021/03/19 01:05:45;;;;;;;29.38;19.55;;;5.10;76.60;;;;;;5018686;28;20384;-73
2021/03/19 01:08:13;;;;;;;29.20;20.95;;;5.10;75.60;;;;;;5018538;28;20381;-74
2021/03/19 01:10:40;;;;;;;30.80;21.15;;;4.90;78.30;;;;;;5018549;28;20393;-73
2021/03/19 01:13:07;;;;;;;30.15;21.05;;;4.90;80.20;;;;;;5018188;28;20476;-74
2021/03/19 01:15:34;;;;;;;31.90;22.00;;;5.10;76.20;;;;;;5019091;28;20415;-73
2021/03/19 01:18:00;;;;;;;27.63;19.65;;;5.00;74.90;;;;;;5018722;28;20949;-73
2021/03/19 01:20:28;;;;;;;26.57;18.90;;;5.20;75.90;;;;;;5020890;28;20393;-74
2021/03/19 01:22:54;;;;;;;28.75;20.00;;;5.40;67.60;;;;;;5015558;28;20415;-72
2021/03/19 01:25:23;;;;;;;24.67;18.73;;;5.20;71.80;;;;;;5014005;28;20388;-74
2021/03/19 01:27:48;;;;;;;26.83;19.65;;;5.30;68.60;;;;;;5013915;28;20385;-72
2021/03/19 01:30:20;;;;;;;28.83;19.90;;;5.30;69.00;;;;;;5013829;28;20469;-73
2021/03/19 01:32:47;;;;;;;30.88;19.73;;;5.20;70.70;;;;;;5015968;28;20508;-73
2021/03/19 01:35:14;;;;;;;32.57;21.00;;;5.10;72.90;;;;;;5033723;28;20422;-73
2021/03/19 01:37:41;;;;;;;31.10;21.70;;;5.10;70.40;;;;;;5033612;28;20815;-74
2021/03/19 01:40:09;;;;;;;30.05;21.50;;;5.00;68.60;;;;;;5033461;28;20471;-73
2021/03/19 01:42:38;;;;;;;29.23;19.80;;;5.00;71.00;;;;;;5035957;28;20395;-72
2021/03/19 01:45:19;;;;;;;33.08;20.83;;;4.90;69.70;;;;;;5040113;28;20422;-74
2021/03/19 01:48:22;;;;;;;34.17;21.73;;;4.80;69.30;;;;;;5032066;28;20401;-74
2021/03/19 01:51:25;;;;;;;34.08;23.00;;;4.70;71.60;;;;;;5018915;28;20393;-72
2021/03/19 01:54:28;;;;;;;34.53;22.77;;;4.60;73.70;;;;;;5018197;28;20393;-74
2021/03/19 01:57:31;;;;;;;31.40;20.98;;;4.60;75.10;;;;;;5019401;28;20712;-73
2021/03/19 02:00:34;;;;;;;33.90;23.53;;;4.50;73.70;;;;;;5018945;28;20957;-73
2021/03/19 02:03:37;;;;;;;33.88;23.45;;;4.50;74.70;;;;;;5017725;28;20377;-72
2021/03/19 02:06:39;;;;;;;33.55;23.60;;;4.50;75.50;;;;;;5017864;28;20389;-72
2021/03/19 02:09:42;;;;;;;33.40;22.67;;;4.50;74.20;;;;;;5017650;28;20412;-74
2021/03/19 02:12:45;;;;;;;34.20;23.45;;;4.50;73.40;;;;;;5017556;28;20448;-73
2021/03/19 02:15:48;;;;;;;35.50;22.92;;;4.50;75.90;;;;;;5016635;28;20405;-73
2021/03/19 02:18:51;;;;;;;36.58;23.63;;;4.40;74.90;;;;;;5017025;28;20377;-73
2021/03/19 02:21:54;;;;;;;38.30;24.65;;;4.50;75.40;;;;;;5016754;28;20774;-72
2021/03/19 02:24:57;;;;;;;36.83;24.42;;;4.50;75.90;;;;;;5015302;28;20392;-73
2021/03/19 02:28:00;;;;;;;38.90;24.27;;;4.50;74.10;;;;;;5018886;28;20472;-72
2021/03/19 02:31:03;;;;;;;38.70;24.93;;;4.50;75.10;;;;;;5013872;28;20770;-72
2021/03/19 02:33:30;;;;;;;37.25;25.10;;;4.40;77.40;;;;;;5012795;28;20405;-77
2021/03/19 02:35:58;;;;;;;39.70;24.88;;;4.40;78.70;;;;;;5013001;28;20818;-72
2021/03/19 02:38:25;;;;;;;41.67;25.80;;;4.50;77.80;;;;;;5012883;28;20388;-72
2021/03/19 02:40:51;;;;;;;39.05;24.83;;;4.50;78.00;;;;;;5012751;28;20389;-73
2021/03/19 02:43:19;;;;;;;35.60;23.70;;;4.40;78.70;;;;;;5012661;28;20376;-73
2021/03/19 02:45:44;;;;;;;35.83;23.48;;;4.40;79.20;;;;;;5014941;28;20389;-72
2021/03/19 02:48:11;;;;;;;37.08;24.73;;;4.40;79.30;;;;;;5017392;28;20392;-72
2021/03/19 02:50:38;;;;;;;34.77;24.43;;;4.30;79.80;;;;;;5013412;28;20422;-72
2021/03/19 02:53:03;;;;;;;35.58;23.15;;;4.20;81.40;;;;;;5012279;28;20396;-72
2021/03/19 02:55:29;;;;;;;35.67;23.50;;;4.20;80.70;;;;;;5012932;28;20388;-72
2021/03/19 02:57:55;;;;;;;37.60;24.38;;;4.30;81.00;;;;;;5018151;28;20531;-72
2021/03/19 03:00:24;;;;;;;39.73;24.90;;;4.30;79.70;;;;;;5017934;28;20453;-72
2021/03/19 03:02:50;;;;;;;38.17;24.23;;;4.20;79.80;;;;;;5017214;28;20397;-72
2021/03/19 03:05:16;;;;;;;31.15;22.38;;;4.20;79.30;;;;;;5014540;28;20591;-73
2021/03/19 03:07:42;;;;;;;35.45;24.38;;;4.10;81.30;;;;;;5012214;28;20392;-72
2021/03/19 03:10:10;;;;;;;38.25;23.75;;;4.00;82.40;;;;;;5011979;28;20407;-73
2021/03/19 03:12:36;;;;;;;35.15;23.17;;;4.20;81.90;;;;;;5011901;28;20385;-73
2021/03/19 03:15:05;;;;;;;37.70;23.17;;;4.20;77.40;;;;;;5011671;28;20439;-72
2021/03/19 03:17:30;;;;;;;35.00;23.48;;;4.20;78.50;;;;;;5012128;28;20404;-73
2021/03/19 03:19:56;;;;;;;33.03;23.30;;;4.20;79.00;;;;;;5011725;28;20779;-72
2021/03/19 03:22:21;;;;;;;36.95;23.40;;;4.20;77.50;;;;;;5011959;28;20396;-72
2021/03/19 03:24:47;;;;;;;39.90;24.42;;;4.20;76.70;;;;;;5011816;28;20494;-72
2021/03/19 03:27:12;;;;;;;39.70;23.80;;;4.20;76.90;;;;;;5011881;28;20458;-73
2021/03/19 03:29:38;;;;;;;35.47;22.90;;;4.30;76.50;;;;;;5011371;28;20417;-72
2021/03/19 03:32:04;;;;;;;30.73;20.90;;;4.30;75.70;;;;;;5011531;28;20408;-73
2021/03/19 03:34:31;;;;;;;40.42;21.63;;;4.30;74.30;;;;;;5011612;28;20970;-71
2021/03/19 03:36:57;;;;;;;32.95;21.17;;;4.30;75.00;;;;;;5011460;28;20462;-73
2021/03/19 03:39:28;;;;;;;34.27;20.30;;;4.30;75.60;;;;;;5011490;28;20831;-73
2021/03/19 03:41:55;;;;;;;27.20;18.52;;;4.30;71.70;;;;;;5015590;28;20532;-73
2021/03/19 03:44:21;;;;;;;28.33;18.85;;;4.30;71.70;;;;;;5017189;28;20396;-73
2021/03/19 03:46:47;;;;;;;31.75;18.83;;;4.30;71.20;;;;;;5017514;28;20759;-73
2021/03/19 03:49:15;;;;;;;28.20;17.75;;;4.20;71.60;;;;;;5016426;28;20409;-74
2021/03/19 03:51:40;;;;;;;26.33;17.92;;;4.20;70.60;;;;;;5016817;28;20385;-74
2021/03/19 03:54:06;;;;;;;27.05;18.33;;;4.20;71.60;;;;;;5015578;28;20415;-74
2021/03/19 03:56:32;;;;;;;32.27;20.50;;;4.10;70.90;;;;;;5016208;28;20374;-73
2021/03/19 03:58:58;;;;;;;31.15;20.15;;;4.10;73.20;;;;;;5014585;28;20451;-73
2021/03/19 04:01:24;;;;;;;30.17;19.87;;;4.10;72.50;;;;;;5014797;28;20400;-72
2021/03/19 04:03:50;;;;;;;32.00;19.67;;;4.10;72.10;;;;;;5015377;28;20424;-72
2021/03/19 04:06:16;;;;;;;30.70;19.70;;;4.20;70.40;;;;;;5015804;28;20878;-72
2021/03/19 04:08:42;;;;;;;29.83;20.00;;;4.10;70.70;;;;;;5014583;28;20409;-73
2021/03/19 04:11:11;;;;;;;31.00;20.65;;;4.20;74.30;;;;;;5014504;28;20808;-73
2021/03/19 04:13:38;;;;;;;33.05;20.50;;;4.20;71.30;;;;;;5014574;28;20472;-73
2021/03/19 04:16:04;;;;;;;31.77;21.40;;;4.20;71.40;;;;;;5014841;28;20392;-73
2021/03/19 04:18:30;;;;;;;31.10;20.25;;;4.20;71.70;;;;;;5014162;28;20477;-73
2021/03/19 04:20:58;;;;;;;30.87;20.80;;;4.30;70.10;;;;;;5014499;28;20437;-73
2021/03/19 04:23:25;;;;;;;33.65;21.52;;;4.30;68.70;;;;;;5015293;28;20395;-73
2021/03/19 04:25:52;;;;;;;31.70;21.58;;;4.30;71.10;;;;;;5014785;28;20447;-73
2021/03/19 04:28:21;;;;;;;33.40;21.67;;;4.20;73.70;;;;;;5014349;28;20407;-72
2021/03/19 04:30:47;;;;;;;32.38;20.40;;;4.30;68.90;;;;;;5014685;28;20816;-74
2021/03/19 04:33:22;;;;;;;36.08;22.27;;;4.20;70.80;;;;;;5014965;28;20400;-74
2021/03/19 04:35:55;;;;;;;32.90;21.60;;;4.20;73.20;;;;;;5014688;28;20389;-72
2021/03/19 04:38:21;;;;;;;35.03;22.50;;;4.20;70.90;;;;;;5014635;28;20413;-72
2021/03/19 04:40:47;;;;;;;33.38;23.30;;;4.10;70.40;;;;;;5014625;28;20377;-73
2021/03/19 04:43:14;;;;;;;41.90;24.35;;;4.20;73.90;;;;;;5014932;28;20388;-73
2021/03/19 04:45:41;;;;;;;37.78;23.77;;;4.20;72.70;;;;;;5014406;28;20389;-74
2021/03/19 04:48:08;;;;;;;38.03;24.10;;;4.20;74.10;;;;;;5014565;28;20393;-72
2021/03/19 04:50:34;;;;;;;36.25;23.65;;;4.10;76.30;;;;;;5014900;28;20381;-73
2021/03/19 04:53:00;;;;;;;37.63;23.60;;;4.20;73.10;;;;;;5014938;28;20776;-72
2021/03/19 04:55:26;;;;;;;36.30;24.50;;;4.10;74.00;;;;;;5015336;28;20774;-73
2021/03/19 04:57:52;;;;;;;37.55;22.70;;;4.00;72.00;;;;;;5015349;28;20400;-73
2021/03/19 05:00:19;;;;;;;40.38;24.30;;;3.80;72.80;;;;;;5014536;28;20392;-73
2021/03/19 05:02:47;;;;;;;41.75;23.95;;;3.70;75.30;;;;;;5015317;28;20439;-72
2021/03/19 05:05:27;;;;;;;37.95;24.50;;;3.60;76.50;;;;;;5015137;28;20480;-72
2021/03/19 05:07:54;;;;;;;39.95;24.40;;;3.60;77.80;;;;;;5015675;28;20397;-73
2021/03/19 05:10:23;;;;;;;42.75;24.40;;;3.40;78.80;;;;;;5015493;28;20427;-73
2021/03/19 05:12:48;;;;;;;37.33;23.05;;;3.40;78.60;;;;;;5015718;28;20395;-74
2021/03/19 05:15:15;;;;;;;41.20;23.98;;;3.30;79.80;;;;;;5015176;28;20385;-74
2021/03/19 05:17:41;;;;;;;43.42;24.50;;;3.20;79.50;;;;;;5015145;28;20400;-73
2021/03/19 05:20:09;;;;;;;46.55;24.80;;;3.20;79.50;;;;;;5014283;28;20389;-73
2021/03/19 05:22:35;;;;;;;36.70;23.20;;;3.10;80.10;;;;;;5010560;28;20940;-73
2021/03/19 05:25:01;;;;;;;38.95;24.77;;;3.10;80.60;;;;;;5010398;28;20468;-74
2021/03/19 05:27:27;;;;;;;42.53;25.23;;;3.00;81.00;;;;;;5009651;28;20428;-73
2021/03/19 05:29:55;;;;;;;42.43;25.77;;;3.00;82.20;;;;;;5009849;28;20412;-73
2021/03/19 05:32:25;;;;;;;41.55;24.60;;;3.00;82.00;;;;;;5010213;28;20421;-73
2021/03/19 05:34:50;;;;;;;45.80;25.23;;;2.90;82.00;;;;;;5008909;28;20384;-73
2021/03/19 05:37:16;;;;;;;42.80;25.63;;;2.90;79.80;;;;;;5008915;28;20392;-73
2021/03/19 05:39:42;;;;;;;40.08;25.63;;;2.90;80.00;;;;;;5013586;28;20887;-73
2021/03/19 05:42:23;;;;;;;48.67;25.87;;;2.90;80.30;;;;;;5013590;28;20423;-73
2021/03/19 05:44:54;;;;;;;45.30;27.08;;;2.90;81.20;;;;;;5013429;28;20393;-73
2021/03/19 05:47:20;;;;;;;47.25;26.08;;;2.90;80.40;;;;;;5013235;28;20388;-73
2021/03/19 05:49:46;;;;;;;54.60;27.43;;;2.90;79.70;;;;;;5013488;28;20549;-73
2021/03/19 05:52:25;;;;;;;43.10;25.50;;;2.90;80.50;;;;;;5014111;28;20455;-73
2021/03/19 05:54:52;;;;;;;44.13;25.70;;;2.90;80.60;;;;;;5013707;28;20393;-73
2021/03/19 05:57:32;;;;;;;44.33;24.93;;;2.90;82.20;;;;;;5014163;28;20747;-73
2021/03/19 06:00:00;;;;;;;41.72;24.10;;;2.90;82.10;;;;;;5013458;28;20384;-73
2021/03/19 06:02:31;;;;;;;40.38;23.40;;;2.90;82.10;;;;;;5013358;28;20389;-72
2021/03/19 06:05:11;;;;;;;40.30;22.38;;;2.90;81.40;;;;;;5013429;28;20797;-73
2021/03/19 06:07:43;;;;;;;36.15;21.35;;;2.90;80.10;;;;;;5011607;28;20396;-72
2021/03/19 06:10:35;;;;;;;34.85;20.30;;;2.90;79.80;;;;;;5013018;28;20540;-73
2021/03/19 06:13:04;;;;;;;31.48;19.77;;;2.90;75.10;;;;;;5013085;28;20464;-74
2021/03/19 06:15:32;;;;;;;34.25;19.15;;;2.70;75.50;;;;;;5013214;28;20385;-73
2021/03/19 06:18:01;;;;;;;30.58;19.48;;;2.80;74.10;;;;;;5012829;28;20389;-73
2021/03/19 06:20:27;;;;;;;32.28;19.98;;;2.70;74.90;;;;;;5013029;28;20404;-73
2021/03/19 06:23:16;;;;;;;29.35;20.50;;;2.70;75.40;;;;;;5012753;28;20814;-74
2021/03/19 06:25:56;;;;;;;28.70;17.23;;;2.80;73.40;;;;;;5012648;28;20878;-73
2021/03/19 06:28:35;;;;;;;34.30;16.77;;;2.80;70.40;;;;;;5012892;28;20389;-73
2021/03/19 06:31:28;;;;;;;25.77;16.85;;;2.80;67.80;;;;;;5012775;28;20396;-73
2021/03/19 06:34:08;;;;;;;25.85;16.23;;;2.80;68.40;;;;;;5016079;28;20400;-73
2021/03/19 06:36:49;;;;;;;27.40;16.95;;;2.70;67.60;;;;;;5015397;28;20392;-73
2021/03/19 06:39:22;;;;;;;24.17;16.10;;;2.80;67.90;;;;;;5015962;28;20389;-74
2021/03/19 06:42:18;;;;;;;24.10;15.73;;;2.80;67.80;;;;;;5015250;28;20420;-73
2021/03/19 06:45:06;;;;;;;26.17;16.05;;;2.80;67.90;;;;;;5014554;28;20695;-74
2021/03/19 06:47:41;;;;;;;25.13;16.13;;;2.90;66.50;;;;;;5013605;28;20472;-70
2021/03/19 06:50:35;;;;;;;25.17;15.45;;;3.00;65.30;;;;;;5013000;28;20404;-74
2021/03/19 06:53:21;;;;;;;23.48;14.68;;;3.00;64.50;;;;;;5010162;28;20393;-73
2021/03/19 06:56:13;;;;;;;26.20;15.45;;;3.00;62.90;;;;;;5015229;28;20762;-75
2021/03/19 06:58:45;;;;;;;22.92;15.07;;;3.10;64.30;;;;;;5016692;28;20389;-73
2021/03/19 07:01:29;;;;;;;27.70;16.17;;;3.10;64.20;;;;;;5016150;28;20393;-73
2021/03/19 07:04:22;;;;;;;25.45;16.58;;;3.10;64.30;;;;;;5014569;28;20405;-72
2021/03/19 07:07:00;;;;;;;24.85;15.50;;;3.20;64.30;;;;;;5014448;28;20381;-71
2021/03/19 07:09:38;;;;;;;22.55;14.80;;;3.30;62.20;;;;;;5019622;28;20464;-70
2021/03/19 07:12:25;;;;;;;21.50;14.20;;;3.30;60.00;;;;;;5035222;28;20387;-73
2021/03/19 07:15:05;;;;;;;20.85;13.32;;;3.40;59.90;;;;;;5035481;28;20452;-72
2021/03/19 07:18:02;;;;;;;22.88;13.77;;;3.40;59.00;;;;;;5034179;28;20469;-71
2021/03/19 07:20:46;;;;;;;22.55;13.05;;;3.40;59.10;;;;;;5021056;28;20406;-71
2021/03/19 07:23:28;;;;;;;22.88;13.23;;;3.60;58.70;;;;;;5035785;28;20737;-71
2021/03/19 07:26:00;;;;;;;19.75;13.55;;;3.60;58.50;;;;;;5019096;28;20434;-72
2021/03/19 07:28:30;;;;;;;21.60;13.40;;;3.70;57.00;;;;;;4991954;28;20433;-72
2021/03/19 07:31:23;;;;;;;22.92;12.60;;;3.80;57.10;;;;;;5006269;28;20405;-70
2021/03/19 07:34:13;;;;;;;21.45;13.30;;;3.80;54.10;;;;;;5013857;28;20397;-71
2021/03/19 07:37:30;;;;;;;18.92;12.60;;;3.80;54.90;;;;;;5014566;28;20389;-72
2021/03/19 07:40:23;;;;;;;17.70;12.50;;;3.70;56.60;;;;;;4992705;28;20488;-71
2021/03/19 07:43:12;;;;;;;24.58;13.02;;;3.90;53.20;;;;;;5019991;28;20761;-70
2021/03/19 07:45:49;;;;;;;19.53;12.23;;;4.00;52.50;;;;;;5019494;28;20386;-70
2021/03/19 07:48:22;;;;;;;19.58;13.07;;;4.00;52.80;;;;;;5020808;28;20690;-72
2021/03/19 07:51:16;;;;;;;20.05;12.80;;;4.10;52.00;;;;;;5013196;28;20392;-72
2021/03/19 07:53:54;;;;;;;17.60;12.20;;;4.00;53.30;;;;;;5013981;28;20473;-73
2021/03/19 07:56:47;;;;;;;17.90;12.02;;;4.00;52.50;;;;;;5012148;28;20545;-74
2021/03/19 07:59:43;;;;;;;16.10;11.70;;;4.20;50.70;;;;;;5011265;28;20403;-73
2021/03/19 08:02:11;;;;;;;18.17;11.85;;;4.30;49.20;;;;;;4990879;28;20390;-73
2021/03/19 08:05:01;;;;;;;18.23;11.20;;;4.20;48.10;;;;;;4994454;28;20437;-74
2021/03/19 08:07:37;;;;;;;17.98;11.40;;;4.20;48.00;;;;;;5030696;28;20383;-73
2021/03/19 08:10:21;;;;;;;15.30;11.55;;;4.30;46.60;;;;;;5026076;28;20447;-73
2021/03/19 08:13:24;;;;;;;17.95;10.73;;;4.30;47.20;;;;;;5011004;28;20389;-73
2021/03/19 08:15:56;;;;;;;16.25;11.35;;;4.40;44.40;;;;;;4991346;28;20378;-73
2021/03/19 08:18:35;;;;;;;14.00;10.45;;;4.40;44.70;;;;;;4992507;28;20864;-74
2021/03/19 08:21:19;;;;;;;18.85;10.68;;;4.60;44.80;;;;;;5011000;28;20479;-73
2021/03/19 08:24:09;;;;;;;17.48;10.38;;;4.50;45.90;;;;;;5016161;28;20417;-75
2021/03/19 08:27:19;;;;;;;15.73;9.63;;;4.40;44.70;;;;;;5021587;28;20855;-74
2021/03/19 08:29:53;;;;;;;18.25;11.05;;;4.70;44.20;;;;;;5010618;28;20882;-73
2021/03/19 08:32:35;;;;;;;13.55;9.60;;;4.90;42.60;;;;;;5013700;28;20407;-73
2021/03/19 08:35:12;;;;;;;16.92;9.60;;;4.90;42.30;;;;;;5025969;28;20482;-73
2021/03/19 08:37:39;;;;;;;13.45;9.98;;;4.90;41.40;;;;;;5031842;28;20405;-74
2021/03/19 08:40:15;;;;;;;12.25;9.60;;;4.90;42.00;;;;;;5017655;28;20487;-72
2021/03/19 08:42:43;;;;;;;9.65;7.57;;;4.80;41.20;;;;;;5009769;28;20763;-72
2021/03/19 08:45:22;;;;;;;13.43;8.50;;;5.00;36.20;;;;;;5022532;28;20399;-72
2021/03/19 08:47:53;;;;;;;13.45;8.80;;;4.80;39.50;;;;;;5023908;28;20400;-75
2021/03/19 08:50:38;;;;;;;14.90;9.00;;;4.70;41.40;;;;;;5012531;28;20420;-73
2021/03/19 08:53:14;;;;;;;12.55;8.20;;;5.10;38.70;;;;;;5012227;28;20393;-73
2021/03/19 08:56:05;;;;;;;11.98;7.50;;;5.10;36.00;;;;;;5029061;28;20513;-73
2021/03/19 08:58:30;;;;;;;12.07;7.60;;;5.00;35.00;;;;;;5017626;28;20396;-72
2021/03/19 09:01:05;;;;;;;10.50;7.50;;;5.00;37.00;;;;;;5015569;28;20468;-72
2021/03/19 09:03:52;;;;;;;11.80;8.10;;;5.10;37.40;;;;;;5030646;28;20436;-72
2021/03/19 09:06:24;;;;;;;10.90;7.60;;;5.30;36.70;;;;;;5020590;28;20393;-75
2021/03/19 09:09:21;;;;;;;10.95;7.13;;;5.30;35.10;;;;;;5010264;28;20420;-74
2021/03/19 09:11:50;;;;;;;12.32;8.80;;;5.30;36.00;;;;;;5009201;28;20767;-72
2021/03/19 09:14:35;;;;;;;12.00;8.55;;;5.50;36.40;;;;;;5022977;28;20453;-73
2021/03/19 09:17:00;;;;;;;14.38;8.65;;;6.00;33.60;;;;;;5034082;28;20379;-73
2021/03/19 09:19:32;;;;;;;12.45;8.23;;;6.10;32.70;;;;;;5041240;28;20454;-74
2021/03/19 09:22:19;;;;;;;11.63;7.55;;;6.20;31.70;;;;;;5017903;28;20389;-73
2021/03/19 09:25:07;;;;;;;10.75;6.82;;;6.20;30.30;;;;;;5018869;28;20487;-74
2021/03/19 09:27:34;;;;;;;11.77;7.38;;;5.90;29.00;;;;;;5013939;28;20480;-74
2021/03/19 09:30:38;;;;;;;12.95;7.10;;;5.90;32.10;;;;;;5015435;28;20854;-73
2021/03/19 09:33:03;;;;;;;12.02;6.95;;;5.80;31.70;;;;;;5016279;28;20411;-73
2021/03/19 09:35:34;;;;;;;9.80;6.53;;;6.00;29.90;;;;;;5033441;28;20387;-73
2021/03/19 09:38:00;;;;;;;9.60;5.35;;;6.20;28.30;;;;;;5031754;28;20486;-73
2021/03/19 09:40:52;;;;;;;10.80;5.50;;;6.10;28.10;;;;;;5013525;28;20408;-72
2021/03/19 09:43:38;;;;;;;6.50;4.40;;;6.20;27.00;;;;;;5015668;28;20609;-71
2021/03/19 09:46:20;;;;;;;4.30;3.90;;;6.30;24.80;;;;;;5033202;28;20371;-72
2021/03/19 09:48:53;;;;;;;7.55;4.88;;;6.40;24.20;;;;;;5016963;28;20413;-70
2021/03/19 09:51:48;;;;;;;8.17;5.00;;;6.50;25.30;;;;;;5013396;28;20388;-71
2021/03/19 09:54:28;;;;;;;5.72;3.50;;;6.80;21.40;;;;;;5004192;28;20873;-72
2021/03/19 09:57:00;;;;;;;5.50;4.07;;;6.90;20.70;;;;;;5012870;28;20400;-71
2021/03/19 09:59:28;;;;;;;5.80;3.95;;;6.90;21.30;;;;;;5012484;28;20968;-72
2021/03/19 10:01:54;;;;;;;7.35;4.40;;;7.00;19.80;;;;;;5014112;28;20404;-70
2021/03/19 10:04:36;;;;;;;7.82;4.30;;;7.00;21.20;;;;;;5037238;28;20400;-72
2021/03/19 10:07:16;;;;;;;10.88;4.10;;;7.00;22.20;;;;;;5012478;28;20444;-73
2021/03/19 10:09:48;;;;;;;5.20;4.00;;;7.30;20.50;;;;;;5016848;28;20522;-73
2021/03/19 10:12:33;;;;;;;9.15;4.93;;;7.50;20.40;;;;;;5014479;28;20450;-72
2021/03/19 10:15:16;;;;;;;6.88;4.70;;;7.60;21.10;;;;;;5031899;28;20589;-72
2021/03/19 10:17:52;;;;;;;4.40;3.53;;;7.80;19.20;;;;;;5033444;28;20450;-72
2021/03/19 10:20:21;;;;;;;5.83;3.30;;;7.60;17.20;;;;;;4993427;28;20448;-73
2021/03/19 10:22:50;;;;;;;5.32;2.53;;;7.50;18.30;;;;;;5027263;28;20892;-75
2021/03/19 10:25:18;;;;;;;6.97;2.80;;;7.30;16.80;;;;;;5031825;28;20792;-72
2021/03/19 10:27:47;;;;;;;2.47;2.25;;;7.30;17.50;;;;;;5031421;28;20744;-73
2021/03/19 10:30:38;;;;;;;4.88;3.05;;;7.10;16.90;;;;;;5035331;28;20407;-73
2021/03/19 10:33:12;;;;;;;7.35;2.92;;;7.20;16.80;;;;;;5026429;28;20414;-72
2021/03/19 10:35:41;;;;;;;3.83;2.60;;;7.20;16.80;;;;;;5028552;28;20405;-70
2021/03/19 10:38:33;;;;;;;4.60;2.90;;;7.30;16.30;;;;;;5015420;28;20451;-70
2021/03/19 10:41:07;;;;;;;4.30;2.53;;;7.30;16.40;;;;;;5026936;28;20401;-70
2021/03/19 10:43:49;;;;;;;2.90;2.70;;;7.40;15.90;;;;;;5014624;28;20399;-70
2021/03/19 10:46:22;;;;;;;4.28;2.60;;;7.60;16.60;;;;;;5034148;28;20399;-70
2021/03/19 10:48:57;;;;;;;13.80;3.25;;;7.60;16.60;;;;;;5017581;28;20412;-72
2021/03/19 10:51:38;;;;;;;4.78;3.00;;;7.80;15.40;;;;;;5015027;28;20776;-72
2021/03/19 10:54:06;;;;;;;4.47;2.53;;;7.80;15.50;;;;;;5007533;28;20440;-72
2021/03/19 10:56:42;;;;;;;4.30;2.70;;;8.00;15.30;;;;;;5036445;28;20419;-73
2021/03/19 10:59:17;;;;;;;3.13;2.53;;;7.80;15.70;;;;;;5029897;28;20412;-76
2021/03/19 11:01:50;;;;;;;3.88;2.42;;;8.10;14.00;;;;;;5011220;28;20407;-72
2021/03/19 11:04:33;;;;;;;2.87;2.43;;;8.20;15.10;;;;;;5019195;28;20927;-72
2021/03/19 11:07:19;;;;;;;5.13;2.63;;;8.50;14.90;;;;;;5011611;28;20426;-72
2021/03/19 11:10:09;;;;;;;3.20;2.55;;;8.60;14.70;;;;;;5021040;28;20426;-71
2021/03/19 11:12:44;;;;;;;2.83;2.30;;;8.30;14.40;;;;;;5024772;28;20400;-72
2021/03/19 11:15:18;;;;;;;4.45;2.40;;;8.20;14.90;;;;;;5011700;28;20859;-72
2021/03/19 11:17:45;;;;;;;3.03;2.50;;;8.10;15.20;;;;;;5018841;28;20429;-74
2021/03/19 11:20:16;;;;;;;4.22;2.40;;;8.20;15.80;;;;;;5020519;28;20413;-71
2021/03/19 11:22:45;;;;;;;2.15;1.83;;;8.40;14.50;;;;;;5018201;28;20409;-73
2021/03/19 11:25:22;;;;;;;4.50;2.20;;;8.20;12.30;;;;;;5011703;28;20434;-73
2021/03/19 11:27:49;;;;;;;3.75;2.58;;;8.00;12.80;;;;;;5011332;28;20419;-72
2021/03/19 11:30:24;;;;;;;3.85;2.20;;;8.00;13.40;;;;;;5014153;28;20409;-72
2021/03/19 11:33:07;;;;;;;3.03;2.63;;;7.90;14.80;;;;;;5024854;28;20418;-72
2021/03/19 11:35:34;;;;;;;4.18;2.10;;;8.10;14.70;;;;;;5033857;28;20379;-73
2021/03/19 11:38:00;;;;;;;2.80;2.22;;;8.30;12.80;;;;;;5015671;28;20399;-72
2021/03/19 11:40:39;;;;;;;4.43;1.80;;;8.30;12.90;;;;;;5011302;28;20931;-72
2021/03/19 11:43:06;;;;;;;2.70;2.50;;;8.50;13.70;;;;;;5028529;28;20403;-72
2021/03/19 11:45:41;;;;;;;2.40;2.20;;;8.80;13.30;;;;;;5028172;28;20395;-72
2021/03/19 11:48:14;;;;;;;3.60;1.70;;;8.60;11.40;;;;;;5013884;28;20902;-73
2021/03/19 11:50:47;;;;;;;7.20;2.00;;;8.40;12.20;;;;;;5010929;28;20508;-72
2021/03/19 11:53:17;;;;;;;2.88;2.10;;;8.10;11.80;;;;;;5010927;28;20759;-72
2021/03/19 11:55:46;;;;;;;2.40;2.20;;;8.10;13.00;;;;;;5013861;28;20783;-72
2021/03/19 11:58:14;;;;;;;1.90;1.70;;;8.40;11.70;;;;;;5030112;28;20886;-72
2021/03/19 12:00:41;;;;;;;2.30;2.05;;;8.60;10.20;;;;;;5029387;28;20754;-71
2021/03/19 12:03:18;;;;;;;1.75;1.65;;;9.00;10.40;;;;;;5010708;28;20419;-71
2021/03/19 12:05:44;;;;;;;2.45;1.80;;;9.30;10.10;;;;;;5013195;28;20440;-72
2021/03/19 12:08:10;;;;;;;1.93;1.77;;;9.70;10.00;;;;;;5033620;28;20461;-72
2021/03/19 12:10:36;;;;;;;2.10;1.50;;;9.70;9.80;;;;;;5032662;28;20938;-73
2021/03/19 12:13:06;;;;;;;3.20;1.55;;;9.50;8.20;;;;;;5017155;28;20452;-71
2021/03/19 12:15:34;;;;;;;2.50;1.52;;;9.60;8.20;;;;;;5027939;28;20402;-72
2021/03/19 12:18:00;;;;;;;2.00;1.57;;;10.00;7.40;;;;;;5030689;28;20565;-72
2021/03/19 12:20:26;;;;;;;3.20;1.90;;;9.90;7.80;;;;;;5013662;28;20802;-72
2021/03/19 12:22:51;;;;;;;2.53;2.00;;;10.00;8.10;;;;;;5008955;28;20447;-72
2021/03/19 12:25:25;;;;;;;1.90;1.70;;;9.90;8.20;;;;;;5013014;28;20466;-71
2021/03/19 12:27:51;;;;;;;4.40;1.90;;;9.90;8.30;;;;;;5010305;28;20764;-72
2021/03/19 12:30:19;;;;;;;2.63;1.92;;;9.30;8.70;;;;;;5010134;28;20408;-72
2021/03/19 12:32:45;;;;;;;2.45;1.83;;;9.30;10.90;;;;;;5011153;28;20462;-74
2021/03/19 12:35:11;;;;;;;2.30;1.90;;;9.40;9.80;;;;;;5017742;28;20789;-73
2021/03/19 12:37:36;;;;;;;1.60;1.50;;;9.40;9.50;;;;;;5017258;28;20416;-72
2021/03/19 12:40:04;;;;;;;5.30;2.60;;;9.30;8.30;;;;;;5016967;28;20808;-76
2021/03/19 12:42:30;;;;;;;3.00;2.00;;;9.30;8.80;;;;;;5012006;28;20397;-74
2021/03/19 12:44:55;;;;;;;1.60;1.50;;;9.90;9.20;;;;;;5015881;28;20407;-73
2021/03/19 12:47:21;;;;;;;2.87;1.53;;;10.50;7.40;;;;;;5015980;28;20755;-72
2021/03/19 12:49:56;;;;;;;2.27;1.50;;;10.60;6.70;;;;;;5020737;28;20405;-73
2021/03/19 12:52:21;;;;;;;3.00;1.90;;;10.60;6.90;;;;;;5025198;28;20416;-72
2021/03/19 12:54:47;;;;;;;1.70;1.60;;;10.70;7.00;;;;;;5038721;28;20928;-72
2021/03/19 12:57:13;;;;;;;2.10;1.60;;;10.70;7.30;;;;;;5035718;28;20719;-71
2021/03/19 12:59:38;;;;;;;2.00;1.20;;;9.90;7.10;;;;;;5016495;28;20391;-71
2021/03/19 13:02:04;;;;;;;2.00;1.40;;;9.80;6.20;;;;;;5016527;28;20440;-70
2021/03/19 13:04:30;;;;;;;3.30;1.40;;;9.70;6.60;;;;;;5016670;28;20911;-72
2021/03/19 13:06:56;;;;;;;1.73;1.63;;;9.60;7.00;;;;;;5016741;28;20384;-70
2021/03/19 13:09:21;;;;;;;2.10;1.90;;;9.70;6.50;;;;;;5016624;28;20466;-71
2021/03/19 13:11:47;;;;;;;2.50;1.20;;;9.60;7.90;;;;;;5016491;28;20395;-71
2021/03/19 13:14:13;;;;;;;1.60;1.50;;;10.00;7.40;;;;;;5017601;28;20381;-70
2021/03/19 13:16:38;;;;;;;1.83;1.50;;;10.20;7.50;;;;;;5018176;28;20385;-72
2021/03/19 13:19:06;;;;;;;2.70;1.60;;;10.10;7.60;;;;;;5018101;28;20482;-71